Time;durP1;ratioP1;P1;durP2;ratioP2;P2;SDS_P1;SDS_P2;PMS_P1;PMS_P2;Temp;Humidity;BMP_temperature;BMP_pressure;BME280_temperature;BME280_humidity;BME280_pressure;Samples;Min_cycle;Max_cycle;Signal;HPM_P1;HPM_P2
2021/11/16 00:00:41;;;;;;;;;;;;;;;;;;5053957;28;19928;-77
2021/11/16 00:03:06;;;;;;;;;;;;;;;;;;5053932;28;19912;-76
2021/11/16 00:05:32;;;;;;;;;;;;;;;;;;5053994;28;19966;-77
2021/11/16 00:07:57;;;;;;;;;;;;;;;;;;5053925;28;19909;-77
2021/11/16 00:10:23;;;;;;;;;;;;;;;;;;5053765;28;19926;-77
2021/11/16 00:12:49;;;;;;;;;;;;;;;;;;5053750;28;20409;-77
2021/11/16 00:15:14;;;;;;;;;;;;;;;;;;5053870;28;19970;-77
2021/11/16 00:17:39;;;;;;;;;;;;;;;;;;5053478;28;19920;-77
2021/11/16 00:20:09;;;;;;;;;;;;;;;;;;5053663;28;19917;-77
2021/11/16 00:22:34;;;;;;;;;;;;;;;;;;5053861;28;20018;-77
2021/11/16 00:27:33;;;;;;;;;;;;;;;;;;5053644;28;19913;-77
2021/11/16 00:29:58;;;;;;;;;;;;;;;;;;5053801;28;20009;-77
2021/11/16 00:32:24;;;;;;;;;;;;;;;;;;5053709;28;19959;-77
2021/11/16 00:34:49;;;;;;;;;;;;;;;;;;5053512;28;19917;-77
2021/11/16 00:37:16;;;;;;;;;;;;;;;;;;5053541;28;19913;-77
2021/11/16 00:39:41;;;;;;;;;;;;;;;;;;5053507;28;19920;-77
2021/11/16 00:42:07;;;;;;;;;;;;;;;;;;5053525;28;19917;-77
2021/11/16 00:44:32;;;;;;;;;;;;;;;;;;5053328;28;19923;-77
2021/11/16 00:46:58;;;;;;;;;;;;;;;;;;5053327;28;19919;-77
2021/11/16 00:49:23;;;;;;;;;;;;;;;;;;5053428;28;19966;-77
2021/11/16 00:51:48;;;;;;;;;;;;;;;;;;5053646;28;19982;-77
2021/11/16 00:54:14;;;;;;;;;;;;;;;;;;5053350;28;19985;-77
2021/11/16 00:56:40;;;;;;;;;;;;;;;;;;5053380;28;19917;-77
2021/11/16 00:59:05;;;;;;;;;;;;;;;;;;5053292;28;20003;-77
2021/11/16 01:01:30;;;;;;;;;;;;;;;;;;5053103;28;19919;-77
2021/11/16 01:03:55;;;;;;;;;;;;;;;;;;5053097;28;19931;-77
2021/11/16 01:06:21;;;;;;;;;;;;;;;;;;5053502;28;19912;-77
2021/11/16 01:08:46;;;;;;;;;;;;;;;;;;5053248;28;20484;-77
2021/11/16 01:11:11;;;;;;;;;;;;;;;;;;5053221;28;19919;-77
2021/11/16 01:13:37;;;;;;;;;;;;;;;;;;5053251;28;19955;-77
2021/11/16 01:16:03;;;;;;;;;;;;;;;;;;5053152;28;19921;-77
2021/11/16 01:18:28;;;;;;;;;;;;;;;;;;5052022;28;20426;-77
2021/11/16 01:20:54;;;;;;;;;;;;;;;;;;5053333;28;19913;-77
2021/11/16 01:23:20;;;;;;;;;;;;;;;;;;5053336;28;19917;-77
2021/11/16 01:25:46;;;;;;;;;;;;;;;;;;5053132;28;19920;-77
2021/11/16 01:28:13;;;;;;;;;;;;;;;;;;5051925;28;19912;-77
2021/11/16 01:30:43;;;;;;;;;;;;;;;;;;5055356;28;19912;-77
2021/11/16 01:33:11;;;;;;;;;;;;;;;;;;5056749;28;19964;-77
2021/11/16 01:35:37;;;;;;;;;;;;;;;;;;5056757;28;19916;-77
2021/11/16 01:38:06;;;;;;;;;;;;;;;;;;5056440;28;19913;-77
2021/11/16 01:40:32;;;;;;;;;;;;;;;;;;5055783;28;19913;-77
2021/11/16 01:42:59;;;;;;;;;;;;;;;;;;5056234;28;19924;-77
2021/11/16 01:45:24;;;;;;;;;;;;;;;;;;5056611;28;19919;-77
2021/11/16 01:47:50;;;;;;;;;;;;;;;;;;5056430;28;19912;-77
2021/11/16 01:50:17;;;;;;;;;;;;;;;;;;5056469;28;19959;-77
2021/11/16 01:52:42;;;;;;;;;;;;;;;;;;5056631;28;20290;-77
2021/11/16 01:55:09;;;;;;;;;;;;;;;;;;5056106;28;19920;-77
2021/11/16 01:57:35;;;;;;;;;;;;;;;;;;5055963;28;19912;-77
2021/11/16 02:00:01;;;;;;;;;;;;;;;;;;5056196;28;19974;-76
2021/11/16 02:02:26;;;;;;;;;;;;;;;;;;5056338;28;19912;-77
2021/11/16 02:04:52;;;;;;;;;;;;;;;;;;5056107;28;20310;-77
2021/11/16 02:07:17;;;;;;;;;;;;;;;;;;5055945;28;19916;-76
2021/11/16 02:09:43;;;;;;;;;;;;;;;;;;5068009;28;19916;-77
2021/11/16 02:12:09;;;;;;;;;;;;;;;;;;5075927;28;20002;-77
2021/11/16 02:14:35;;;;;;;;;;;;;;;;;;5075824;28;20025;-77
2021/11/16 02:17:01;;;;;;;;;;;;;;;;;;5076086;28;19912;-77
2021/11/16 02:19:26;;;;;;;;;;;;;;;;;;5075914;28;19912;-77
2021/11/16 02:21:54;;;;;;;;;;;;;;;;;;5075779;28;19912;-77
2021/11/16 02:24:20;;;;;;;;;;;;;;;;;;5075650;28;19920;-77
2021/11/16 02:26:46;;;;;;;;;;;;;;;;;;5075848;28;20278;-77
2021/11/16 02:29:11;;;;;;;;;;;;;;;;;;5074390;28;19922;-76
2021/11/16 02:31:37;;;;;;;;;;;;;;;;;;5075794;28;19920;-77
2021/11/16 02:34:03;;;;;;;;;;;;;;;;;;5075522;28;19912;-77
2021/11/16 02:36:31;;;;;;;;;;;;;;;;;;5074288;28;19986;-77
2021/11/16 02:38:56;;;;;;;;;;;;;;;;;;5069846;28;19912;-77
2021/11/16 02:41:25;;;;;;;;;;;;;;;;;;5054492;28;19919;-77
2021/11/16 02:43:50;;;;;;;;;;;;;;;;;;5055221;28;19916;-77
2021/11/16 02:46:15;;;;;;;;;;;;;;;;;;5055478;28;20282;-77
2021/11/16 02:48:41;;;;;;;;;;;;;;;;;;5055106;28;19912;-77
2021/11/16 02:51:09;;;;;;;;;;;;;;;;;;5055272;28;20000;-77
2021/11/16 02:53:38;;;;;;;;;;;;;;;;;;5055126;28;19913;-77
2021/11/16 02:56:04;;;;;;;;;;;;;;;;;;5055261;28;20282;-77
2021/11/16 02:58:30;;;;;;;;;;;;;;;;;;5055156;28;19921;-77
2021/11/16 03:00:57;;;;;;;;;;;;;;;;;;5053942;28;19912;-77
2021/11/16 03:03:24;;;;;;;;;;;;;;;;;;5055082;28;19913;-77
2021/11/16 03:05:49;;;;;;;;;;;;;;;;;;5054859;28;19951;-76
2021/11/16 03:08:20;;;;;;;;;;;;;;;;;;5053938;28;19962;-77
2021/11/16 03:10:45;;;;;;;;;;;;;;;;;;5055050;28;19919;-76
2021/11/16 03:13:11;;;;;;;;;;;;;;;;;;5054991;28;20269;-77
2021/11/16 03:15:37;;;;;;;;;;;;;;;;;;5055013;28;19920;-77
2021/11/16 03:18:02;;;;;;;;;;;;;;;;;;5053282;28;19978;-77
2021/11/16 03:20:28;;;;;;;;;;;;;;;;;;5059341;28;19913;-77
2021/11/16 03:23:08;;;;;;;;;;;;;;;;;;5074663;28;19912;-79
2021/11/16 03:25:36;;;;;;;;;;;;;;;;;;5074454;28;19938;-78
2021/11/16 03:28:05;;;;;;;;;;;;;;;;;;5074909;28;19919;-78
2021/11/16 03:30:31;;;;;;;;;;;;;;;;;;5074318;28;19955;-80
2021/11/16 03:32:56;;;;;;;;;;;;;;;;;;5074381;28;20301;-78
2021/11/16 03:35:22;;;;;;;;;;;;;;;;;;5074647;28;19924;-78
2021/11/16 03:37:51;;;;;;;;;;;;;;;;;;5074526;28;20372;-79
2021/11/16 03:40:17;;;;;;;;;;;;;;;;;;5074710;28;19970;-78
2021/11/16 03:42:47;;;;;;;;;;;;;;;;;;5074527;28;19934;-77
2021/11/16 03:45:12;;;;;;;;;;;;;;;;;;5073364;28;19916;-78
2021/11/16 03:47:38;;;;;;;;;;;;;;;;;;5074760;28;19919;-78
2021/11/16 03:50:05;;;;;;;;;;;;;;;;;;5073521;28;19912;-79
2021/11/16 03:52:35;;;;;;;;;;;;;;;;;;5055231;28;20328;-77
2021/11/16 03:55:00;;;;;;;;;;;;;;;;;;5053191;28;20382;-77
2021/11/16 03:57:26;;;;;;;;;;;;;;;;;;5054633;28;19967;-79
2021/11/16 03:59:51;;;;;;;;;;;;;;;;;;5054212;28;19920;-78
2021/11/16 04:02:17;;;;;;;;;;;;;;;;;;5053388;28;19920;-77
2021/11/16 04:04:43;;;;;;;;;;;;;;;;;;5053848;28;19912;-79
2021/11/16 04:07:08;;;;;;;;;;;;;;;;;;5052557;28;19920;-78
2021/11/16 04:09:33;;;;;;;;;;;;;;;;;;5053996;28;19974;-78
2021/11/16 04:11:59;;;;;;;;;;;;;;;;;;5053713;28;19913;-77
2021/11/16 04:14:24;;;;;;;;;;;;;;;;;;5053821;28;19916;-77
2021/11/16 04:16:52;;;;;;;;;;;;;;;;;;5053709;28;19917;-77
2021/11/16 04:19:17;;;;;;;;;;;;;;;;;;5052565;28;19924;-78
2021/11/16 04:21:42;;;;;;;;;;;;;;;;;;5053612;28;20007;-78
2021/11/16 04:24:08;;;;;;;;;;;;;;;;;;5052281;28;20374;-78
2021/11/16 04:26:33;;;;;;;;;;;;;;;;;;5053651;28;19912;-78
2021/11/16 04:28:58;;;;;;;;;;;;;;;;;;5053558;28;19999;-77
2021/11/16 04:31:23;;;;;;;;;;;;;;;;;;5053529;28;19920;-78
2021/11/16 04:33:49;;;;;;;;;;;;;;;;;;5053498;28;19919;-78
2021/11/16 04:36:17;;;;;;;;;;;;;;;;;;5053562;28;19920;-78
2021/11/16 04:38:42;;;;;;;;;;;;;;;;;;5053445;28;19992;-77
2021/11/16 04:41:08;;;;;;;;;;;;;;;;;;5053628;28;20437;-78
2021/11/16 04:43:33;;;;;;;;;;;;;;;;;;5052082;28;19917;-78
2021/11/16 04:46:08;;;;;;;;;;;;;;;;;;5053532;28;19912;-77
2021/11/16 04:54:12;;;;;;;;;;;;;;;;;;5053420;28;20259;-77
2021/11/16 04:59:40;;;;;;;;;;;;;;;;;;5053494;28;19913;-78
2021/11/16 05:04:51;;;;;;;;;;;;;;;;;;5054639;28;19966;-77
2021/11/16 05:07:18;;;;;;;;;;;;;;;;;;5057120;28;19913;-77
2021/11/16 05:09:47;;;;;;;;;;;;;;;;;;5057205;28;19909;-78
2021/11/16 05:12:13;;;;;;;;;;;;;;;;;;5057229;28;19912;-78
2021/11/16 05:14:38;;;;;;;;;;;;;;;;;;5055829;28;20404;-78
2021/11/16 05:17:03;;;;;;;;;;;;;;;;;;5057254;28;20462;-77
2021/11/16 05:19:29;;;;;;;;;;;;;;;;;;5071657;28;19912;-77
2021/11/16 05:21:54;;;;;;;;;;;;;;;;;;5076834;28;19912;-78
2021/11/16 05:24:23;;;;;;;;;;;;;;;;;;5076893;28;20003;-78
2021/11/16 05:26:49;;;;;;;;;;;;;;;;;;5076910;28;19912;-77
2021/11/16 05:29:14;;;;;;;;;;;;;;;;;;5075595;28;20432;-79
2021/11/16 05:31:39;;;;;;;;;;;;;;;;;;5075616;28;19913;-78
2021/11/16 05:34:05;;;;;;;;;;;;;;;;;;5076727;28;19937;-77
2021/11/16 05:36:30;;;;;;;;;;;;;;;;;;5076621;28;19974;-78
2021/11/16 05:38:55;;;;;;;;;;;;;;;;;;5076767;28;19913;-78
2021/11/16 05:41:21;;;;;;;;;;;;;;;;;;5076686;28;19916;-77
2021/11/16 05:43:47;;;;;;;;;;;;;;;;;;5076378;28;19916;-78
2021/11/16 05:46:13;;;;;;;;;;;;;;;;;;5076470;28;19959;-77
2021/11/16 05:48:40;;;;;;;;;;;;;;;;;;5068166;28;20469;-78
2021/11/16 05:51:06;;;;;;;;;;;;;;;;;;5056051;28;19912;-78
2021/11/16 05:53:32;;;;;;;;;;;;;;;;;;5056027;28;20057;-78
2021/11/16 05:55:58;;;;;;;;;;;;;;;;;;5056336;28;20310;-78
2021/11/16 05:58:23;;;;;;;;;;;;;;;;;;5056274;28;19913;-79
2021/11/16 06:00:49;;;;;;;;;;;;;;;;;;5056547;28;19947;-77
2021/11/16 06:03:15;;;;;;;;;;;;;;;;;;5056377;28;19920;-77
2021/11/16 06:05:40;;;;;;;;;;;;;;;;;;5056282;28;20358;-79
2021/11/16 06:08:06;;;;;;;;;;;;;;;;;;5056241;28;19927;-78
2021/11/16 06:10:32;;;;;;;;;;;;;;;;;;5055979;28;19920;-77
2021/11/16 06:12:57;;;;;;;;;;;;;;;;;;5055857;28;20347;-78
2021/11/16 06:15:23;;;;;;;;;;;;;;;;;;5055819;28;19916;-77
2021/11/16 06:17:48;;;;;;;;;;;;;;;;;;5056021;28;20290;-77
2021/11/16 06:20:17;;;;;;;;;;;;;;;;;;5056117;28;20011;-78
2021/11/16 06:22:42;;;;;;;;;;;;;;;;;;5056064;28;19965;-77
2021/11/16 06:25:08;;;;;;;;;;;;;;;;;;5055800;28;19912;-78
2021/11/16 06:27:33;;;;;;;;;;;;;;;;;;5055450;28;20005;-79
2021/11/16 06:29:59;;;;;;;;;;;;;;;;;;5054574;28;19920;-79
2021/11/16 06:32:24;;;;;;;;;;;;;;;;;;5055792;28;19920;-78
2021/11/16 06:34:49;;;;;;;;;;;;;;;;;;5054438;28;19912;-78
2021/11/16 06:37:15;;;;;;;;;;;;;;;;;;5055625;28;19912;-78
2021/11/16 06:39:41;;;;;;;;;;;;;;;;;;5055681;28;19966;-78
2021/11/16 06:42:06;;;;;;;;;;;;;;;;;;5055744;28;19909;-78
2021/11/16 06:44:32;;;;;;;;;;;;;;;;;;5055364;28;20430;-78
2021/11/16 06:46:57;;;;;;;;;;;;;;;;;;5055410;28;19916;-78
2021/11/16 06:49:23;;;;;;;;;;;;;;;;;;5055213;28;19913;-77
2021/11/16 06:51:49;;;;;;;;;;;;;;;;;;5055698;28;19912;-78
2021/11/16 06:54:22;;;;;;;;;;;;;;;;;;5055240;28;19913;-78
2021/11/16 06:56:49;;;;;;;;;;;;;;;;;;5053163;28;19952;-79
2021/11/16 06:59:15;;;;;;;;;;;;;;;;;;5055089;28;19955;-78
2021/11/16 07:01:41;;;;;;;;;;;;;;;;;;5055117;28;19913;-78
2021/11/16 07:04:10;;;;;;;;;;;;;;;;;;5054448;28;20063;-77
2021/11/16 07:06:36;;;;;;;;;;;;;;;;;;5055028;28;19913;-77
2021/11/16 07:09:02;;;;;;;;;;;;;;;;;;5054881;28;19935;-78
2021/11/16 07:11:27;;;;;;;;;;;;;;;;;;5054910;28;20011;-79
2021/11/16 07:13:56;;;;;;;;;;;;;;;;;;5054890;28;19956;-78
2021/11/16 07:16:21;;;;;;;;;;;;;;;;;;5054929;28;20304;-78
2021/11/16 07:18:51;;;;;;;;;;;;;;;;;;5054864;28;19922;-77
2021/11/16 07:21:17;;;;;;;;;;;;;;;;;;5054792;28;19913;-77
2021/11/16 07:23:42;;;;;;;;;;;;;;;;;;5054996;28;19966;-77
2021/11/16 07:26:15;;;;;;;;;;;;;;;;;;5055193;28;20278;-77
2021/11/16 07:28:44;;;;;;;;;;;;;;;;;;5054549;28;20003;-76
2021/11/16 07:31:15;;;;;;;;;;;;;;;;;;5054326;28;19971;-75
2021/11/16 07:33:40;;;;;;;;;;;;;;;;;;5056118;28;19960;-75
2021/11/16 07:36:09;;;;;;;;;;;;;;;;;;5055383;28;19959;-75
2021/11/16 07:38:34;;;;;;;;;;;;;;;;;;5055066;28;19919;-76
2021/11/16 07:40:59;;;;;;;;;;;;;;;;;;5055198;28;19912;-76
2021/11/16 07:43:26;;;;;;;;;;;;;;;;;;5054795;28;19960;-76
2021/11/16 07:45:53;;;;;;;;;;;;;;;;;;5054413;28;20465;-77
2021/11/16 07:48:26;;;;;;;;;;;;;;;;;;5054321;28;19919;-77
2021/11/16 07:50:52;;;;;;;;;;;;;;;;;;5054383;28;19957;-75
2021/11/16 07:53:20;;;;;;;;;;;;;;;;;;5054294;28;19913;-76
2021/11/16 07:55:51;;;;;;;;;;;;;;;;;;5054066;28;19955;-77
2021/11/16 07:58:17;;;;;;;;;;;;;;;;;;5054047;28;20375;-77
2021/11/16 08:00:44;;;;;;;;;;;;;;;;;;5053082;28;20016;-77
2021/11/16 08:03:11;;;;;;;;;;;;;;;;;;5054303;28;20393;-77
2021/11/16 08:08:15;;;;;;;;;;;;;;;;;;5055690;28;19920;-77
2021/11/16 08:10:43;;;;;;;;;;;;;;;;;;5054520;28;19912;-77
2021/11/16 08:13:15;;;;;;;;;;;;;;;;;;5054030;28;19912;-77
2021/11/16 08:15:41;;;;;;;;;;;;;;;;;;5054484;28;19967;-79
2021/11/16 08:18:12;;;;;;;;;;;;;;;;;;5054259;28;19920;-77
2021/11/16 08:20:37;;;;;;;;;;;;;;;;;;5055106;28;20384;-78
2021/11/16 08:23:05;;;;;;;;;;;;;;;;;;5052691;28;20003;-78
2021/11/16 08:25:31;;;;;;;;;;;;;;;;;;5053625;28;20285;-79
2021/11/16 08:27:57;;;;;;;;;;;;;;;;;;5054137;28;19938;-77
2021/11/16 08:30:23;;;;;;;;;;;;;;;;;;5053469;28;19912;-77
2021/11/16 08:32:51;;;;;;;;;;;;;;;;;;5051112;28;19999;-79
2021/11/16 08:35:21;;;;;;;;;;;;;;;;;;5051707;28;20410;-77
2021/11/16 08:37:47;;;;;;;;;;;;;;;;;;5053305;28;19912;-79
2021/11/16 08:40:15;;;;;;;;;;;;;;;;;;5056887;28;19966;-78
2021/11/16 08:42:42;;;;;;;;;;;;;;;;;;5061591;28;19913;-80
2021/11/16 08:45:08;;;;;;;;;;;;;;;;;;5061472;28;19964;-78
2021/11/16 08:47:38;;;;;;;;;;;;;;;;;;5059682;28;19958;-78
2021/11/16 08:50:05;;;;;;;;;;;;;;;;;;5057667;28;19913;-76
2021/11/16 08:52:32;;;;;;;;;;;;;;;;;;5057965;28;19919;-78
2021/11/16 08:55:03;;;;;;;;;;;;;;;;;;5057394;28;19935;-78
2021/11/16 08:57:28;;;;;;;;;;;;;;;;;;5056040;28;19923;-79
2021/11/16 08:59:54;;;;;;;;;;;;;;;;;;5057597;28;20293;-78
2021/11/16 09:02:21;;;;;;;;;;;;;;;;;;5057546;28;19916;-77
2021/11/16 09:04:46;;;;;;;;;;;;;;;;;;5040423;28;19956;-78
2021/11/16 09:07:26;;;;;;;;;;;;;;;;;;5037338;28;19949;-79
2021/11/16 09:09:54;;;;;;;;;;;;;;;;;;5036945;28;19913;-79
2021/11/16 09:12:30;;;;;;;;;;;;;;;;;;5037237;28;19955;-77
2021/11/16 09:14:57;;;;;;;;;;;;;;;;;;5037278;28;19917;-77
2021/11/16 09:17:22;;;;;;;;;;;;;;;;;;5037180;28;19913;-78
2021/11/16 09:19:47;;;;;;;;;;;;;;;;;;5037205;28;19920;-77
2021/11/16 09:22:14;;;;;;;;;;;;;;;;;;5037510;28;19913;-79
2021/11/16 09:24:39;;;;;;;;;;;;;;;;;;5038099;28;19916;-78
2021/11/16 09:29:34;;;;;;;;;;;;;;;;;;5037754;28;19913;-77
2021/11/16 09:32:10;;;;;;;;;;;;;;;;;;5037545;28;19928;-77
2021/11/16 09:34:38;;;;;;;;;;;;;;;;;;5036826;28;19920;-78
2021/11/16 09:37:05;;;;;;;;;;;;;;;;;;5037411;28;19924;-75
2021/11/16 09:39:30;;;;;;;;;;;;;;;;;;5036888;28;20359;-78
2021/11/16 09:42:01;;;;;;;;;;;;;;;;;;5036591;28;19919;-78
2021/11/16 09:44:26;;;;;;;;;;;;;;;;;;5036544;28;19917;-78
2021/11/16 09:46:53;;;;;;;;;;;;;;;;;;5068677;28;19912;-78
2021/11/16 09:49:25;;;;;;;;;;;;;;;;;;5076168;28;20334;-78
2021/11/16 09:51:57;;;;;;;;;;;;;;;;;;5076611;28;19912;-77
2021/11/16 09:54:22;;;;;;;;;;;;;;;;;;5075550;28;19916;-78
2021/11/16 09:56:47;;;;;;;;;;;;;;;;;;5080219;28;20329;-79
2021/11/16 09:59:23;;;;;;;;;;;;;;;;;;5079758;28;19952;-79
2021/11/16 10:01:49;;;;;;;;;;;;;;;;;;5078074;28;19912;-79
2021/11/16 10:04:18;;;;;;;;;;;;;;;;;;5078952;28;19912;-79
2021/11/16 10:06:43;;;;;;;;;;;;;;;;;;5078919;28;19912;-78
2021/11/16 10:09:10;;;;;;;;;;;;;;;;;;5078538;28;19912;-78
2021/11/16 10:11:40;;;;;;;;;;;;;;;;;;5077435;28;19912;-78
2021/11/16 10:14:06;;;;;;;;;;;;;;;;;;5077677;28;19934;-79
2021/11/16 10:16:32;;;;;;;;;;;;;;;;;;5064155;28;20356;-79
2021/11/16 10:18:57;;;;;;;;;;;;;;;;;;5057454;28;19962;-78
2021/11/16 10:21:22;;;;;;;;;;;;;;;;;;5055643;28;19913;-78
2021/11/16 10:23:50;;;;;;;;;;;;;;;;;;5056791;28;19918;-78
2021/11/16 10:26:16;;;;;;;;;;;;;;;;;;5055649;28;19912;-79
2021/11/16 10:28:42;;;;;;;;;;;;;;;;;;5056927;28;20377;-78
2021/11/16 10:31:08;;;;;;;;;;;;;;;;;;5056597;28;19916;-78
2021/11/16 10:33:35;;;;;;;;;;;;;;;;;;5056776;28;19912;-78
2021/11/16 10:36:03;;;;;;;;;;;;;;;;;;5056569;28;19921;-78
2021/11/16 10:38:30;;;;;;;;;;;;;;;;;;5056302;28;20122;-79
2021/11/16 10:40:56;;;;;;;;;;;;;;;;;;5056688;28;20294;-78
2021/11/16 10:43:22;;;;;;;;;;;;;;;;;;5056328;28;19917;-78
2021/11/16 10:45:49;;;;;;;;;;;;;;;;;;5049292;28;19917;-78
2021/11/16 10:48:16;;;;;;;;;;;;;;;;;;5036740;28;19912;-78
2021/11/16 10:50:46;;;;;;;;;;;;;;;;;;5036913;28;19913;-79
2021/11/16 10:53:14;;;;;;;;;;;;;;;;;;5036121;28;20385;-78
2021/11/16 10:55:44;;;;;;;;;;;;;;;;;;5036839;28;19917;-78
2021/11/16 10:58:10;;;;;;;;;;;;;;;;;;5036611;28;19912;-78
2021/11/16 11:00:38;;;;;;;;;;;;;;;;;;5037056;28;20374;-78
2021/11/16 11:03:15;;;;;;;;;;;;;;;;;;5035672;28;19995;-77
2021/11/16 11:05:42;;;;;;;;;;;;;;;;;;5040508;28;20390;-78
2021/11/16 11:08:07;;;;;;;;;;;;;;;;;;5075310;28;19912;-78
2021/11/16 11:10:42;;;;;;;;;;;;;;;;;;5076747;28;19999;-79
2021/11/16 11:13:23;;;;;;;;;;;;;;;;;;5076594;28;19958;-78
2021/11/16 11:15:49;;;;;;;;;;;;;;;;;;5076222;28;19920;-78
2021/11/16 11:18:34;;;;;;;;;;;;;;;;;;5076474;28;20435;-77
2021/11/16 11:21:01;;;;;;;;;;;;;;;;;;5076359;28;19919;-78
2021/11/16 11:23:32;;;;;;;;;;;;;;;;;;5076316;28;19913;-79
2021/11/16 11:26:37;;;;;;;;;;;;;;;;;;5075946;28;20033;-77
2021/11/16 11:29:15;;;;;;;;;;;;;;;;;;5053710;28;19962;-78
2021/11/16 11:31:41;;;;;;;;;;;;;;;;;;5073386;28;19957;-78
2021/11/16 11:34:07;;;;;;;;;;;;;;;;;;5075973;28;20369;-78
2021/11/16 11:36:32;;;;;;;;;;;;;;;;;;5067258;28;20011;-78
2021/11/16 11:38:57;;;;;;;;;;;;;;;;;;5055783;28;19971;-77
2021/11/16 11:41:24;;;;;;;;;;;;;;;;;;5055875;28;20291;-78
2021/11/16 11:44:08;;;;;;;;;;;;;;;;;;5055848;28;20011;-78
2021/11/16 11:46:44;;;;;;;;;;;;;;;;;;5055871;28;19912;-77
2021/11/16 11:49:09;;;;;;;;;;;;;;;;;;5054292;28;19912;-79
2021/11/16 11:51:35;;;;;;;;;;;;;;;;;;5054366;28;19919;-79
2021/11/16 11:54:00;;;;;;;;;;;;;;;;;;5054137;28;19913;-79
2021/11/16 11:56:25;;;;;;;;;;;;;;;;;;5054376;28;20007;-78
2021/11/16 11:58:52;;;;;;;;;;;;;;;;;;5054562;28;19912;-78
2021/11/16 12:01:18;;;;;;;;;;;;;;;;;;5055010;28;19916;-77
2021/11/16 12:03:44;;;;;;;;;;;;;;;;;;5054569;28;19965;-79
2021/11/16 12:06:10;;;;;;;;;;;;;;;;;;5060137;28;19935;-80
2021/11/16 12:08:35;;;;;;;;;;;;;;;;;;5074976;28;19912;-77
2021/11/16 12:11:01;;;;;;;;;;;;;;;;;;5074740;28;19912;-78
2021/11/16 12:13:27;;;;;;;;;;;;;;;;;;5074764;28;20370;-77
2021/11/16 12:16:07;;;;;;;;;;;;;;;;;;5073219;28;19916;-77
2021/11/16 12:18:40;;;;;;;;;;;;;;;;;;5074618;28;19922;-77
2021/11/16 12:21:26;;;;;;;;;;;;;;;;;;5074596;28;19956;-78
2021/11/16 12:23:55;;;;;;;;;;;;;;;;;;5074628;28;20251;-79
2021/11/16 12:26:21;;;;;;;;;;;;;;;;;;5074510;28;20389;-78
2021/11/16 12:28:47;;;;;;;;;;;;;;;;;;5074574;28;20386;-79
2021/11/16 12:31:23;;;;;;;;;;;;;;;;;;5074403;28;19916;-77
2021/11/16 12:33:49;;;;;;;;;;;;;;;;;;5074308;28;19924;-79
2021/11/16 12:36:34;;;;;;;;;;;;;;;;;;5067675;28;20278;-77
2021/11/16 12:39:09;;;;;;;;;;;;;;;;;;5047019;28;19913;-77
2021/11/16 12:41:35;;;;;;;;;;;;;;;;;;5054374;28;19919;-78
2021/11/16 12:44:02;;;;;;;;;;;;;;;;;;5054345;28;19924;-78
2021/11/16 12:46:29;;;;;;;;;;;;;;;;;;5053193;28;20338;-78
2021/11/16 12:48:56;;;;;;;;;;;;;;;;;;5052625;28;19920;-78
2021/11/16 12:51:29;;;;;;;;;;;;;;;;;;5053659;28;19920;-78
2021/11/16 12:53:55;;;;;;;;;;;;;;;;;;5053693;28;19913;-79
2021/11/16 12:56:22;;;;;;;;;;;;;;;;;;5053667;28;19950;-79
2021/11/16 12:58:48;;;;;;;;;;;;;;;;;;5053743;28;20354;-78
2021/11/16 13:01:32;;;;;;;;;;;;;;;;;;5053781;28;19919;-79
2021/11/16 13:03:59;;;;;;;;;;;;;;;;;;5053327;28;19916;-78
2021/11/16 13:06:24;;;;;;;;;;;;;;;;;;5061541;28;19919;-79
2021/11/16 13:08:50;;;;;;;;;;;;;;;;;;5073776;28;19909;-79
2021/11/16 13:11:36;;;;;;;;;;;;;;;;;;5073534;28;20404;-79
2021/11/16 13:14:01;;;;;;;;;;;;;;;;;;5073713;28;20397;-77
2021/11/16 13:16:26;;;;;;;;;;;;;;;;;;5074978;28;19916;-79
2021/11/16 13:18:55;;;;;;;;;;;;;;;;;;5075830;28;19919;-79
2021/11/16 13:21:22;;;;;;;;;;;;;;;;;;5075917;28;19912;-79
2021/11/16 13:23:50;;;;;;;;;;;;;;;;;;5073853;28;19912;-78
2021/11/16 13:26:18;;;;;;;;;;;;;;;;;;5074293;28;19912;-78
2021/11/16 13:28:56;;;;;;;;;;;;;;;;;;5077025;28;19918;-79
2021/11/16 13:31:21;;;;;;;;;;;;;;;;;;5059180;28;19912;-80
2021/11/16 13:33:49;;;;;;;;;;;;;;;;;;5077036;28;19919;-78
2021/11/16 13:36:16;;;;;;;;;;;;;;;;;;5077080;28;19923;-79
2021/11/16 13:38:58;;;;;;;;;;;;;;;;;;5077378;28;20374;-78
2021/11/16 13:41:38;;;;;;;;;;;;;;;;;;5077598;28;20305;-79
2021/11/16 13:44:07;;;;;;;;;;;;;;;;;;5076698;28;19923;-79
2021/11/16 13:46:33;;;;;;;;;;;;;;;;;;5077143;28;19916;-78
2021/11/16 13:48:58;;;;;;;;;;;;;;;;;;5077162;28;19913;-79
2021/11/16 13:51:23;;;;;;;;;;;;;;;;;;5076691;28;20006;-79
2021/11/16 13:54:01;;;;;;;;;;;;;;;;;;5076957;28;19912;-79
2021/11/16 13:56:27;;;;;;;;;;;;;;;;;;5076666;28;19916;-78
2021/11/16 13:58:53;;;;;;;;;;;;;;;;;;5080476;28;20007;-79
2021/11/16 14:01:31;;;;;;;;;;;;;;;;;;5080230;28;20399;-79
2021/11/16 14:04:10;;;;;;;;;;;;;;;;;;5076115;28;20323;-78
2021/11/16 14:06:36;;;;;;;;;;;;;;;;;;5066615;28;19913;-77
2021/11/16 14:09:14;;;;;;;;;;;;;;;;;;5056012;28;19917;-78
2021/11/16 14:11:52;;;;;;;;;;;;;;;;;;5056414;28;19913;-78
2021/11/16 14:14:19;;;;;;;;;;;;;;;;;;5056095;28;20004;-78
2021/11/16 14:16:44;;;;;;;;;;;;;;;;;;5055601;28;19917;-78
2021/11/16 14:19:10;;;;;;;;;;;;;;;;;;5038141;28;19919;-78
2021/11/16 14:21:36;;;;;;;;;;;;;;;;;;5054458;28;20401;-78
2021/11/16 14:24:01;;;;;;;;;;;;;;;;;;5055868;28;19970;-77
2021/11/16 14:26:29;;;;;;;;;;;;;;;;;;5055727;28;19967;-78
2021/11/16 14:28:54;;;;;;;;;;;;;;;;;;5055653;28;20365;-77
2021/11/16 14:31:23;;;;;;;;;;;;;;;;;;5055915;28;19913;-77
2021/11/16 14:33:49;;;;;;;;;;;;;;;;;;5055291;28;19923;-79
2021/11/16 14:36:15;;;;;;;;;;;;;;;;;;5062228;28;20362;-78
2021/11/16 14:38:45;;;;;;;;;;;;;;;;;;5074450;28;19912;-77
2021/11/16 14:41:13;;;;;;;;;;;;;;;;;;5075846;28;19957;-78
2021/11/16 14:43:38;;;;;;;;;;;;;;;;;;5075620;28;19920;-77
2021/11/16 14:46:07;;;;;;;;;;;;;;;;;;5075701;28;19912;-78
2021/11/16 14:48:35;;;;;;;;;;;;;;;;;;5075054;28;19965;-78
2021/11/16 14:51:30;;;;;;;;;;;;;;;;;;5075509;28;19962;-78
2021/11/16 14:53:53;;;;;;;;;;;;;;;;;;5075088;28;19912;-78
2021/11/16 14:56:22;;;;;;;;;;;;;;;;;;5075127;28;19920;-78
2021/11/16 14:58:51;;;;;;;;;;;;;;;;;;5075396;28;19959;-76
2021/11/16 15:01:17;;;;;;;;;;;;;;;;;;5075636;28;19959;-77
2021/11/16 15:03:43;;;;;;;;;;;;;;;;;;5075554;28;19955;-77
2021/11/16 15:06:09;;;;;;;;;;;;;;;;;;5076147;28;20335;-78
2021/11/16 15:08:35;;;;;;;;;;;;;;;;;;5065972;28;19935;-79
2021/11/16 15:11:02;;;;;;;;;;;;;;;;;;5057752;28;19912;-77
2021/11/16 15:13:30;;;;;;;;;;;;;;;;;;5054915;28;20446;-78
2021/11/16 15:15:55;;;;;;;;;;;;;;;;;;5056533;28;20275;-78
2021/11/16 15:18:21;;;;;;;;;;;;;;;;;;5055858;28;19919;-78
2021/11/16 15:21:14;;;;;;;;;;;;;;;;;;5057838;28;19913;-78
2021/11/16 15:23:47;;;;;;;;;;;;;;;;;;5057047;28;19916;-78
2021/11/16 15:26:13;;;;;;;;;;;;;;;;;;5049585;28;19913;-78
2021/11/16 15:28:40;;;;;;;;;;;;;;;;;;5046279;28;19960;-80
2021/11/16 15:31:07;;;;;;;;;;;;;;;;;;5048523;28;19962;-78
2021/11/16 15:33:38;;;;;;;;;;;;;;;;;;5045807;28;20011;-78
2021/11/16 15:36:12;;;;;;;;;;;;;;;;;;5043896;28;20004;-78
2021/11/16 15:38:42;;;;;;;;;;;;;;;;;;5042533;28;19921;-79
2021/11/16 15:41:09;;;;;;;;;;;;;;;;;;5041328;28;20365;-79
2021/11/16 15:44:05;;;;;;;;;;;;;;;;;;5057292;28;20313;-79
2021/11/16 15:46:56;;;;;;;;;;;;;;;;;;5052291;28;20366;-80
2021/11/16 15:49:54;;;;;;;;;;;;;;;;;;5043579;28;19912;-79
2021/11/16 15:57:38;;;;;;;;;;;;;;;;;;5047299;28;20402;-79
2021/11/16 16:00:11;;;;;;;;;;;;;;;;;;5045832;28;19954;-79
2021/11/16 16:02:36;;;;;;;;;;;;;;;;;;5044136;28;20366;-79
2021/11/16 16:05:17;;;;;;;;;;;;;;;;;;5054242;28;19920;-80
2021/11/16 16:07:55;;;;;;;;;;;;;;;;;;5028440;28;19912;-79
2021/11/16 16:10:30;;;;;;;;;;;;;;;;;;5033124;28;19912;-78
2021/11/16 16:12:56;;;;;;;;;;;;;;;;;;5045211;28;19912;-79
2021/11/16 16:15:36;;;;;;;;;;;;;;;;;;5045649;28;19958;-79
2021/11/16 16:18:12;;;;;;;;;;;;;;;;;;5047440;28;19912;-81
2021/11/16 16:20:37;;;;;;;;;;;;;;;;;;5034122;28;19913;-78
2021/11/16 16:23:03;;;;;;;;;;;;;;;;;;5036057;28;19913;-79
2021/11/16 16:25:29;;;;;;;;;;;;;;;;;;5034769;28;19912;-79
2021/11/16 16:27:55;;;;;;;;;;;;;;;;;;5034813;28;19913;-77
2021/11/16 16:30:20;;;;;;;;;;;;;;;;;;5034889;28;20007;-78
2021/11/16 16:32:46;;;;;;;;;;;;;;;;;;5034576;28;20366;-78
2021/11/16 16:35:11;;;;;;;;;;;;;;;;;;5034695;28;19980;-77
2021/11/16 16:37:37;;;;;;;;;;;;;;;;;;5034265;28;20367;-78
2021/11/16 16:40:05;;;;;;;;;;;;;;;;;;5068601;28;19920;-78
2021/11/16 16:42:30;;;;;;;;;;;;;;;;;;5074478;28;19947;-78
2021/11/16 16:44:56;;;;;;;;;;;;;;;;;;5073583;28;19956;-77
2021/11/16 16:47:21;;;;;;;;;;;;;;;;;;5073717;28;20402;-78
2021/11/16 16:49:47;;;;;;;;;;;;;;;;;;5073872;28;19919;-78
2021/11/16 16:52:12;;;;;;;;;;;;;;;;;;5074076;28;19912;-77
2021/11/16 16:54:38;;;;;;;;;;;;;;;;;;5073675;28;19922;-78
2021/11/16 16:57:04;;;;;;;;;;;;;;;;;;5073853;28;20011;-77
2021/11/16 16:59:30;;;;;;;;;;;;;;;;;;5073857;28;19912;-78
2021/11/16 17:02:03;;;;;;;;;;;;;;;;;;5076797;28;19912;-78
2021/11/16 17:04:32;;;;;;;;;;;;;;;;;;5077619;28;19923;-78
2021/11/16 17:06:57;;;;;;;;;;;;;;;;;;5078020;28;19913;-78
2021/11/16 17:09:22;;;;;;;;;;;;;;;;;;5065251;28;19912;-78
2021/11/16 17:11:48;;;;;;;;;;;;;;;;;;5057843;28;19916;-78
2021/11/16 17:14:14;;;;;;;;;;;;;;;;;;5043196;28;19960;-78